Main page
METAR-TAF:

METAR-TAF

Airports :

Rarotonga, Cook Islands

Rarotonga International Airport

latitude: 21-12S, longitude: 159-49W, elevation: 7 m

Current weather observation

The report was made 51 minutes ago, at 11:00 UTC
Wind 11 kt from the West/Southwest
Temperature 25°C
Humidity 83%
Pressure 1009 hPa
Visibility 10 km or more
Few clouds at a height of 2100 ft
Broken clouds at a height of 5000 ft

METAR: NCRG 261100Z 25011KT 9999 FEW021 BKN050 25/22 Q1009

Time: 01:51 (11:51 UTC)

Forecast

The report was made 54 minutes ago, at 10:57 UTC
Forecast valid from 26 at 12 UTC to 27 at 12 UTC
Wind 7 kt from the West
Visibility 10 km or more
Few clouds at a height of 2000 ft
Broken clouds at a height of 4500 ft
light rain showers
Probability 40% :
Temporary
from 26 at 12 UTC to 26 at 24 UTC
Visibility: 3000 m
Broken clouds at a height of 1500 ft
Few clouds at a height of 1700 ft, Cumulonimbus.
thunderstorm, rain

TAF: NCRG 261057Z 2612/2712 26007KT 9999 -SHRA FEW020 BKN045 PROB40 TEMPO 2612/2624 3000 TSRA BKN015 FEW017CB

Weather observations and forecasts of more than 4000 airports (METAR and TAF reports).

The available stations are represented by yellow and red dots on the map.

Hover mouse over dot to see the name of the station.

Then click to see weather observations and forecasts.

To change the map : click on the green buttons with a black cross to zoom in, on the green button with a dash to zoom out, or on the green arrows for adjacent maps.


METAR-TAF: